Terminal Aerodrome Forecast
Issued by NWS Blacksburg, VA

Current Version | Previous Version | Text Only | Print | Product List | Glossary Off
Versions: 1 2 3 4 5 6 7 8 9 10 11 12 13 14 15 16 17 18 19 20 21 22 23 24 25 26 27 28 29 30 31 32 33 34 35 36 37 38 39 40 41 42 43 44 45 46 47 48 49 50

000
FTUS41 KRNK 190520
TAFBLF
TAF
KBLF 190520Z 1906/2006 06003KT P6SM OVC050
     FM190800 12006KT 4SM BR SCT004 OVC013
      TEMPO 1910/1913 2SM -DZ BR OVC004
     FM191500 13010KT P6SM OVC025
     FM191800 14005KT P6SM BKN035 BKN100
     FM200000 14006KT P6SM SCT025 BKN050=

USA.gov is the U.S. government's official web portal to all federal, state and local government web resources and services.